Time;durP1;ratioP1;P1;durP2;ratioP2;P2;SDS_P1;SDS_P2;PMS_P1;PMS_P2;Temp;Humidity;BMP_temperature;BMP_pressure;BME280_temperature;BME280_humidity;BME280_pressure;Samples;Min_cycle;Max_cycle;Signal;HPM_P1;HPM_P2
2021/09/02 00:00:28;;;;;;;;;;;22.20;48.00;;;;;;496559;240;1033;-72
2021/09/02 00:02:30;;;;;;;;;;;22.20;47.80;;;;;;496131;240;1082;-72
2021/09/02 00:04:31;;;;;;;;;;;22.20;47.90;;;;;;496142;240;1048;-72
2021/09/02 00:06:32;;;;;;;;;;;22.20;47.90;;;;;;496026;240;1294;-72
2021/09/02 00:08:34;;;;;;;;;;;22.40;47.40;;;;;;496326;240;1077;-72
2021/09/02 00:10:35;;;;;;;;;;;22.30;47.50;;;;;;496030;240;2193;-73
2021/09/02 00:12:36;;;;;;;;;;;22.30;47.60;;;;;;496038;240;1173;-73
2021/09/02 00:14:38;;;;;;;;;;;22.30;47.60;;;;;;496070;240;1066;-73
2021/09/02 00:16:39;;;;;;;;;;;22.20;47.50;;;;;;496006;240;1031;-73
2021/09/02 00:18:40;;;;;;;;;;;22.20;47.50;;;;;;496073;240;1168;-73
2021/09/02 00:20:42;;;;;;;;;;;22.20;47.60;;;;;;496123;240;1048;-73
2021/09/02 00:22:43;;;;;;;;;;;22.20;47.50;;;;;;496051;240;1043;-72
2021/09/02 00:24:45;;;;;;;;;;;22.20;47.50;;;;;;496098;240;965;-73
2021/09/02 00:26:46;;;;;;;;;;;22.20;47.50;;;;;;496292;240;1048;-72
2021/09/02 00:28:47;;;;;;;;;;;22.20;47.50;;;;;;495982;240;1181;-72
2021/09/02 00:30:49;;;;;;;;;;;22.20;47.50;;;;;;496004;240;2189;-73
2021/09/02 00:32:50;;;;;;;;;;;22.20;47.50;;;;;;496003;240;1042;-73
2021/09/02 00:34:51;;;;;;;;;;;22.20;47.40;;;;;;496095;240;1075;-73
2021/09/02 00:36:53;;;;;;;;;;;22.20;47.40;;;;;;496033;240;1117;-73
2021/09/02 00:38:54;;;;;;;;;;;22.30;47.40;;;;;;496026;240;1080;-73
2021/09/02 00:40:57;;;;;;;;;;;22.20;47.20;;;;;;496067;240;1075;-73
2021/09/02 00:42:57;;;;;;;;;;;22.20;47.30;;;;;;496008;240;1397;-73
2021/09/02 00:44:58;;;;;;;;;;;22.20;47.20;;;;;;496093;240;987;-73
2021/09/02 00:46:59;;;;;;;;;;;22.20;47.20;;;;;;496035;240;1007;-73
2021/09/02 00:49:01;;;;;;;;;;;22.20;47.20;;;;;;496104;240;1081;-73
2021/09/02 00:51:02;;;;;;;;;;;22.20;47.20;;;;;;496359;240;2138;-73
2021/09/02 00:53:03;;;;;;;;;;;22.20;47.20;;;;;;495978;236;1201;-73
2021/09/02 00:55:05;;;;;;;;;;;22.20;47.20;;;;;;496068;240;1149;-73
2021/09/02 00:57:06;;;;;;;;;;;22.10;47.20;;;;;;496049;240;1083;-72
2021/09/02 00:59:07;;;;;;;;;;;22.20;47.20;;;;;;496109;240;1173;-72
2021/09/02 01:01:09;;;;;;;;;;;22.20;47.10;;;;;;496072;240;1045;-72
2021/09/02 01:03:10;;;;;;;;;;;22.20;46.90;;;;;;496108;240;1204;-72
2021/09/02 01:05:11;;;;;;;;;;;22.20;47.00;;;;;;496055;240;1069;-73
2021/09/02 01:07:13;;;;;;;;;;;22.20;46.90;;;;;;495959;240;1210;-73
2021/09/02 01:09:14;;;;;;;;;;;22.20;47.00;;;;;;496268;240;1028;-72
2021/09/02 01:11:15;;;;;;;;;;;22.60;46.50;;;;;;496028;240;2142;-72
2021/09/02 01:13:17;;;;;;;;;;;22.40;46.30;;;;;;496077;240;1312;-72
2021/09/02 01:15:18;;;;;;;;;;;22.40;46.50;;;;;;496295;240;1099;-72
2021/09/02 01:17:19;;;;;;;;;;;22.70;46.10;;;;;;496118;240;1125;-72
2021/09/02 01:19:21;;;;;;;;;;;23.20;44.90;;;;;;496063;240;1101;-72
2021/09/02 01:21:22;;;;;;;;;;;23.80;43.90;;;;;;496131;240;1039;-73
2021/09/02 01:23:24;;;;;;;;;;;23.90;43.20;;;;;;496156;240;1079;-73
2021/09/02 01:25:25;;;;;;;;;;;24.10;42.80;;;;;;496039;240;1030;-72
2021/09/02 01:27:26;;;;;;;;;;;24.30;42.70;;;;;;496041;240;1061;-72
2021/09/02 01:29:28;;;;;;;;;;;24.30;42.40;;;;;;496087;240;1188;-73
2021/09/02 01:31:29;;;;;;;;;;;24.40;42.20;;;;;;495990;240;2198;-72
2021/09/02 01:33:30;;;;;;;;;;;24.40;42.20;;;;;;496114;240;1118;-72
2021/09/02 01:35:32;;;;;;;;;;;24.50;42.00;;;;;;496052;240;1055;-72
2021/09/02 01:37:33;;;;;;;;;;;24.40;42.10;;;;;;496225;240;1124;-72
2021/09/02 01:39:34;;;;;;;;;;;24.60;41.70;;;;;;496038;240;1024;-73
2021/09/02 01:41:36;;;;;;;;;;;24.60;41.80;;;;;;496043;240;1139;-73
2021/09/02 01:43:37;;;;;;;;;;;24.60;41.80;;;;;;496198;240;1130;-73
2021/09/02 01:45:39;;;;;;;;;;;24.60;41.60;;;;;;496073;240;1101;-72
2021/09/02 01:47:40;;;;;;;;;;;24.70;41.40;;;;;;496103;240;1166;-72
2021/09/02 01:49:41;;;;;;;;;;;24.80;41.30;;;;;;496119;240;1068;-72
2021/09/02 01:51:43;;;;;;;;;;;24.60;41.60;;;;;;495959;239;2134;-72
2021/09/02 01:53:44;;;;;;;;;;;24.80;41.10;;;;;;496047;240;1021;-72
2021/09/02 01:55:45;;;;;;;;;;;24.70;41.30;;;;;;496066;240;1029;-72
2021/09/02 01:57:47;;;;;;;;;;;24.70;41.40;;;;;;496051;240;1128;-72
2021/09/02 01:59:48;;;;;;;;;;;24.70;41.20;;;;;;496126;240;1145;-72
2021/09/02 02:01:49;;;;;;;;;;;24.40;41.70;;;;;;496077;238;1185;-72
2021/09/02 02:03:51;;;;;;;;;;;24.60;41.10;;;;;;496089;240;1045;-72
2021/09/02 02:05:52;;;;;;;;;;;24.50;41.60;;;;;;496052;240;1042;-73
2021/09/02 02:07:53;;;;;;;;;;;24.70;41.30;;;;;;496587;240;1117;-73
2021/09/02 02:09:55;;;;;;;;;;;24.60;41.20;;;;;;496464;240;971;-73
2021/09/02 02:11:56;;;;;;;;;;;24.80;41.10;;;;;;496072;240;2139;-72
2021/09/02 02:13:57;;;;;;;;;;;24.50;41.50;;;;;;496057;240;1236;-73
2021/09/02 02:15:59;;;;;;;;;;;24.60;41.10;;;;;;496173;240;1094;-73
2021/09/02 02:18:00;;;;;;;;;;;24.70;41.10;;;;;;496105;240;1015;-73
2021/09/02 02:20:01;;;;;;;;;;;24.70;40.90;;;;;;496271;240;1069;-72
2021/09/02 02:22:03;;;;;;;;;;;24.70;41.10;;;;;;495940;240;1030;-72
2021/09/02 02:24:04;;;;;;;;;;;24.80;40.70;;;;;;496038;240;1031;-72
2021/09/02 02:26:05;;;;;;;;;;;24.60;41.10;;;;;;496326;240;1038;-72
2021/09/02 02:28:07;;;;;;;;;;;24.50;40.90;;;;;;496025;240;1074;-72
2021/09/02 02:30:08;;;;;;;;;;;24.60;41.30;;;;;;496166;240;1211;-73
2021/09/02 02:32:09;;;;;;;;;;;24.80;40.90;;;;;;496026;240;2193;-72
2021/09/02 02:34:11;;;;;;;;;;;24.60;40.80;;;;;;496469;240;1151;-72
2021/09/02 02:36:12;;;;;;;;;;;24.50;41.10;;;;;;496070;240;1072;-72
2021/09/02 02:38:13;;;;;;;;;;;24.40;41.10;;;;;;496133;240;1061;-73
2021/09/02 02:40:15;;;;;;;;;;;24.70;40.90;;;;;;496499;240;1038;-73
2021/09/02 02:42:16;;;;;;;;;;;24.60;41.10;;;;;;496244;240;1054;-73
2021/09/02 02:44:17;;;;;;;;;;;24.70;40.90;;;;;;496148;240;1170;-73
2021/09/02 02:46:19;;;;;;;;;;;24.30;41.20;;;;;;496105;240;1040;-73
2021/09/02 02:48:20;;;;;;;;;;;24.50;41.10;;;;;;496128;240;1057;-73
2021/09/02 02:50:21;;;;;;;;;;;24.40;41.10;;;;;;496544;240;1052;-73
2021/09/02 02:52:23;;;;;;;;;;;24.50;41.10;;;;;;496031;240;2154;-73
2021/09/02 02:54:24;;;;;;;;;;;24.50;41.40;;;;;;496296;240;1073;-73
2021/09/02 02:56:25;;;;;;;;;;;24.60;41.00;;;;;;496059;240;1087;-73
2021/09/02 02:58:27;;;;;;;;;;;24.40;41.30;;;;;;496315;240;1097;-72
2021/09/02 03:00:28;;;;;;;;;;;24.50;41.10;;;;;;496080;240;1094;-72
2021/09/02 03:02:29;;;;;;;;;;;24.70;40.90;;;;;;496188;240;981;-72
2021/09/02 03:04:31;;;;;;;;;;;24.30;41.20;;;;;;496134;240;1009;-72
2021/09/02 03:06:32;;;;;;;;;;;24.40;41.10;;;;;;496077;240;1306;-73
2021/09/02 03:08:33;;;;;;;;;;;24.50;41.30;;;;;;496226;240;1031;-73
2021/09/02 03:10:35;;;;;;;;;;;24.70;40.80;;;;;;496213;240;1052;-73
2021/09/02 03:12:36;;;;;;;;;;;24.60;41.20;;;;;;496043;240;2193;-73
2021/09/02 03:14:37;;;;;;;;;;;24.90;40.60;;;;;;496100;240;1160;-73
2021/09/02 03:16:39;;;;;;;;;;;24.80;40.50;;;;;;496017;240;1157;-73
2021/09/02 03:18:40;;;;;;;;;;;24.60;40.90;;;;;;496101;240;1503;-72
2021/09/02 03:20:41;;;;;;;;;;;24.80;40.80;;;;;;496061;240;1100;-72
2021/09/02 03:22:43;;;;;;;;;;;24.80;40.70;;;;;;496008;240;1054;-72
2021/09/02 03:24:44;;;;;;;;;;;24.80;40.50;;;;;;496226;240;1034;-72
2021/09/02 03:26:45;;;;;;;;;;;24.90;40.60;;;;;;496054;240;1223;-72
2021/09/02 03:28:47;;;;;;;;;;;24.50;40.70;;;;;;496090;240;1068;-73
2021/09/02 03:30:48;;;;;;;;;;;24.70;40.60;;;;;;496176;240;1220;-73
2021/09/02 03:32:49;;;;;;;;;;;24.70;40.70;;;;;;496135;240;2138;-73
2021/09/02 03:34:50;;;;;;;;;;;24.60;40.70;;;;;;495975;240;1403;-73
2021/09/02 03:36:52;;;;;;;;;;;24.70;40.60;;;;;;496001;240;1189;-72
2021/09/02 03:38:53;;;;;;;;;;;24.60;40.90;;;;;;496018;240;1015;-72
2021/09/02 03:40:55;;;;;;;;;;;24.70;40.70;;;;;;496229;240;1066;-72
2021/09/02 03:42:56;;;;;;;;;;;24.70;40.60;;;;;;496061;240;1041;-72
2021/09/02 03:44:57;;;;;;;;;;;24.90;40.30;;;;;;496236;240;1147;-72
2021/09/02 03:46:58;;;;;;;;;;;25.00;40.20;;;;;;496396;240;1072;-73
2021/09/02 03:49:00;;;;;;;;;;;25.00;40.10;;;;;;496112;240;1031;-72
2021/09/02 03:51:01;;;;;;;;;;;25.00;40.00;;;;;;496071;240;1016;-73
2021/09/02 03:53:02;;;;;;;;;;;24.80;40.20;;;;;;496048;240;2205;-73
2021/09/02 03:55:04;;;;;;;;;;;24.60;40.60;;;;;;496059;240;1159;-72
2021/09/02 03:57:05;;;;;;;;;;;24.80;40.40;;;;;;496058;240;1086;-73
2021/09/02 03:59:06;;;;;;;;;;;24.80;40.50;;;;;;496156;240;1045;-72
2021/09/02 04:01:08;;;;;;;;;;;24.50;40.80;;;;;;496051;240;1117;-73
2021/09/02 04:03:09;;;;;;;;;;;24.60;40.60;;;;;;496061;240;1026;-72
2021/09/02 04:05:10;;;;;;;;;;;24.60;40.50;;;;;;496112;240;1043;-72
2021/09/02 04:07:12;;;;;;;;;;;24.60;40.50;;;;;;495944;240;1110;-72
2021/09/02 04:09:13;;;;;;;;;;;24.80;40.30;;;;;;496474;240;1150;-72
2021/09/02 04:11:14;;;;;;;;;;;24.50;40.70;;;;;;496302;240;1097;-72
2021/09/02 04:13:16;;;;;;;;;;;24.80;40.20;;;;;;496028;240;2127;-72
2021/09/02 04:15:17;;;;;;;;;;;24.70;40.50;;;;;;496458;240;1215;-72
2021/09/02 04:17:18;;;;;;;;;;;24.70;40.10;;;;;;496349;240;1073;-72
2021/09/02 04:19:20;;;;;;;;;;;24.60;40.40;;;;;;496384;240;1195;-72
2021/09/02 04:21:21;;;;;;;;;;;24.60;40.40;;;;;;495984;239;1440;-72
2021/09/02 04:23:22;;;;;;;;;;;24.70;40.20;;;;;;495916;240;1116;-72
2021/09/02 04:25:23;;;;;;;;;;;24.40;41.00;;;;;;496058;240;1144;-72
2021/09/02 04:27:25;;;;;;;;;;;24.50;40.40;;;;;;496017;240;1139;-72
2021/09/02 04:29:26;;;;;;;;;;;24.60;40.50;;;;;;496169;240;1245;-72
2021/09/02 04:31:27;;;;;;;;;;;24.50;40.30;;;;;;495962;240;1218;-72
2021/09/02 04:33:29;;;;;;;;;;;24.50;40.60;;;;;;495914;240;2206;-72
2021/09/02 04:35:30;;;;;;;;;;;24.50;40.30;;;;;;496406;240;1165;-72
2021/09/02 04:37:31;;;;;;;;;;;24.70;40.10;;;;;;496279;240;1049;-72
2021/09/02 04:39:33;;;;;;;;;;;24.50;40.20;;;;;;495902;240;1027;-72
2021/09/02 04:41:34;;;;;;;;;;;24.60;40.20;;;;;;495832;240;1206;-72
2021/09/02 04:43:35;;;;;;;;;;;24.60;40.20;;;;;;495946;240;1165;-72
2021/09/02 04:45:37;;;;;;;;;;;24.40;40.60;;;;;;496286;236;1210;-72
2021/09/02 04:47:38;;;;;;;;;;;24.60;40.30;;;;;;496346;240;1033;-72
2021/09/02 04:49:39;;;;;;;;;;;24.40;40.50;;;;;;495982;240;1019;-72
2021/09/02 04:51:41;;;;;;;;;;;24.50;40.30;;;;;;495938;240;1061;-72
2021/09/02 04:53:42;;;;;;;;;;;24.40;40.40;;;;;;496342;240;2194;-72
2021/09/02 04:55:43;;;;;;;;;;;24.40;40.10;;;;;;495927;240;1056;-72
2021/09/02 04:57:45;;;;;;;;;;;24.50;40.20;;;;;;496109;240;1128;-72
2021/09/02 04:59:46;;;;;;;;;;;24.70;39.90;;;;;;495905;240;1196;-72
2021/09/02 05:01:47;;;;;;;;;;;24.40;40.30;;;;;;496091;240;1104;-72
2021/09/02 05:03:49;;;;;;;;;;;24.40;40.20;;;;;;496138;240;1169;-72
2021/09/02 05:05:50;;;;;;;;;;;24.40;40.30;;;;;;495900;240;1057;-72
2021/09/02 05:07:51;;;;;;;;;;;24.50;40.00;;;;;;495801;240;1178;-72
2021/09/02 05:09:53;;;;;;;;;;;24.60;40.00;;;;;;496050;240;1189;-72
2021/09/02 05:11:54;;;;;;;;;;;24.50;40.00;;;;;;495834;240;1118;-72
2021/09/02 05:13:55;;;;;;;;;;;24.50;40.10;;;;;;496374;240;2131;-72
2021/09/02 05:15:57;;;;;;;;;;;24.60;39.40;;;;;;495931;240;1112;-72
2021/09/02 05:17:58;;;;;;;;;;;24.40;40.20;;;;;;496344;240;1049;-72
2021/09/02 05:19:59;;;;;;;;;;;24.40;40.20;;;;;;496125;240;1018;-72
2021/09/02 05:22:01;;;;;;;;;;;24.40;40.40;;;;;;495857;240;1039;-72
2021/09/02 05:24:02;;;;;;;;;;;24.50;40.00;;;;;;495887;240;1078;-72
2021/09/02 05:26:03;;;;;;;;;;;24.40;40.20;;;;;;495807;238;1130;-72
2021/09/02 05:28:05;;;;;;;;;;;24.50;40.00;;;;;;495768;240;1065;-72
2021/09/02 05:30:06;;;;;;;;;;;24.60;40.10;;;;;;495871;240;1059;-72
2021/09/02 05:32:07;;;;;;;;;;;24.60;40.10;;;;;;495870;240;1129;-72
2021/09/02 05:34:09;;;;;;;;;;;24.40;40.00;;;;;;496246;240;2205;-72
2021/09/02 05:36:10;;;;;;;;;;;24.30;40.20;;;;;;495914;239;1187;-72
2021/09/02 05:38:11;;;;;;;;;;;24.40;40.20;;;;;;495894;240;1043;-72
2021/09/02 05:40:13;;;;;;;;;;;24.60;40.20;;;;;;496044;240;1053;-72
2021/09/02 05:42:14;;;;;;;;;;;24.50;40.30;;;;;;496074;240;1042;-72
2021/09/02 05:44:17;;;;;;;;;;;24.50;40.20;;;;;;496057;240;1089;-72
2021/09/02 05:46:18;;;;;;;;;;;24.50;40.10;;;;;;496002;240;1396;-72
2021/09/02 05:48:20;;;;;;;;;;;24.60;40.20;;;;;;495984;240;1049;-72
2021/09/02 05:50:21;;;;;;;;;;;24.60;40.10;;;;;;495994;240;1034;-72
2021/09/02 05:52:22;;;;;;;;;;;24.50;40.20;;;;;;495723;240;1230;-72
2021/09/02 05:54:24;;;;;;;;;;;24.60;40.20;;;;;;495657;240;2468;-72
2021/09/02 05:56:25;;;;;;;;;;;24.70;40.20;;;;;;495657;240;1151;-72
2021/09/02 05:58:26;;;;;;;;;;;24.60;40.30;;;;;;495777;240;1338;-72
2021/09/02 06:00:28;;;;;;;;;;;24.60;40.50;;;;;;495707;240;1066;-72
2021/09/02 06:02:30;;;;;;;;;;;24.50;40.50;;;;;;495719;240;1390;-72
2021/09/02 06:04:30;;;;;;;;;;;24.60;40.70;;;;;;495853;240;1329;-72
2021/09/02 06:06:32;;;;;;;;;;;24.50;40.70;;;;;;495793;240;1149;-72
2021/09/02 06:08:33;;;;;;;;;;;24.60;40.90;;;;;;495639;240;1068;-72
2021/09/02 06:10:35;;;;;;;;;;;24.60;40.60;;;;;;495586;240;1068;-72
2021/09/02 06:12:36;;;;;;;;;;;24.50;40.90;;;;;;495642;240;2187;-72
2021/09/02 06:14:37;;;;;;;;;;;24.30;41.20;;;;;;495734;240;1104;-72
2021/09/02 06:16:39;;;;;;;;;;;24.60;40.70;;;;;;495576;240;1462;-72
2021/09/02 06:18:40;;;;;;;;;;;24.20;41.40;;;;;;495869;240;1056;-72
2021/09/02 06:20:41;;;;;;;;;;;24.40;41.20;;;;;;495714;240;1192;-72
2021/09/02 06:22:42;;;;;;;;;;;24.50;41.50;;;;;;495698;240;1083;-72
2021/09/02 06:24:44;;;;;;;;;;;24.40;41.40;;;;;;495639;240;1076;-72
2021/09/02 06:26:45;;;;;;;;;;;24.70;41.20;;;;;;495682;240;1081;-72
2021/09/02 06:28:46;;;;;;;;;;;24.60;41.50;;;;;;495564;240;1108;-72
2021/09/02 06:30:49;;;;;;;;;;;24.60;41.30;;;;;;495662;240;1086;-73
2021/09/02 06:32:50;;;;;;;;;;;24.70;41.30;;;;;;495487;240;2194;-73
2021/09/02 06:34:51;;;;;;;;;;;24.80;41.40;;;;;;495583;240;1038;-72
2021/09/02 06:36:52;;;;;;;;;;;24.70;41.50;;;;;;495449;240;1548;-73
2021/09/02 06:38:54;;;;;;;;;;;24.70;41.40;;;;;;495537;240;1104;-73
2021/09/02 06:40:55;;;;;;;;;;;24.80;41.10;;;;;;495650;240;1077;-73
2021/09/02 06:42:56;;;;;;;;;;;24.60;41.40;;;;;;495878;240;1045;-73
2021/09/02 06:44:58;;;;;;;;;;;24.80;41.60;;;;;;495654;240;1147;-73
2021/09/02 06:46:59;;;;;;;;;;;24.80;41.40;;;;;;495596;240;1083;-73
2021/09/02 06:49:01;;;;;;;;;;;24.90;41.40;;;;;;495737;240;1164;-73
2021/09/02 06:51:02;;;;;;;;;;;24.70;41.80;;;;;;495652;240;1043;-73
2021/09/02 06:53:03;;;;;;;;;;;24.90;41.40;;;;;;495611;240;2209;-73
2021/09/02 06:55:05;;;;;;;;;;;24.70;41.80;;;;;;495711;240;1068;-73
2021/09/02 06:57:06;;;;;;;;;;;24.60;42.00;;;;;;495545;240;1067;-73
2021/09/02 06:59:07;;;;;;;;;;;24.80;42.00;;;;;;495316;240;1111;-73
2021/09/02 07:01:09;;;;;;;;;;;24.60;42.00;;;;;;495406;240;1061;-73
2021/09/02 07:03:11;;;;;;;;;;;24.80;42.00;;;;;;495318;240;1154;-73
2021/09/02 07:05:11;;;;;;;;;;;24.60;42.30;;;;;;495370;240;1263;-73
2021/09/02 07:07:13;;;;;;;;;;;24.80;42.10;;;;;;495314;240;1308;-73
2021/09/02 07:09:14;;;;;;;;;;;24.50;42.90;;;;;;495316;240;1100;-73
2021/09/02 07:11:15;;;;;;;;;;;24.60;42.70;;;;;;495277;240;1384;-72
2021/09/02 07:13:17;;;;;;;;;;;24.60;42.70;;;;;;495384;240;2190;-72
2021/09/02 07:15:18;;;;;;;;;;;25.00;42.30;;;;;;495495;240;1128;-73
2021/09/02 07:17:19;;;;;;;;;;;24.40;42.80;;;;;;495236;240;1112;-73
2021/09/02 07:19:21;;;;;;;;;;;24.60;42.90;;;;;;495259;240;1158;-73
2021/09/02 07:21:22;;;;;;;;;;;24.60;42.80;;;;;;495272;240;1061;-73
2021/09/02 07:23:23;;;;;;;;;;;24.60;43.00;;;;;;495333;240;1049;-73
2021/09/02 07:25:25;;;;;;;;;;;24.40;43.40;;;;;;495223;240;1066;-73
2021/09/02 07:27:26;;;;;;;;;;;24.40;43.40;;;;;;495293;240;1462;-73
2021/09/02 07:29:27;;;;;;;;;;;24.30;43.80;;;;;;495339;240;1055;-73
2021/09/02 07:31:29;;;;;;;;;;;24.30;43.80;;;;;;494999;240;1448;-73
2021/09/02 07:33:30;;;;;;;;;;;24.50;43.60;;;;;;495229;240;2190;-73
2021/09/02 07:35:31;;;;;;;;;;;24.40;43.60;;;;;;495191;240;1116;-73
2021/09/02 07:37:33;;;;;;;;;;;24.60;43.40;;;;;;495170;240;1181;-73
2021/09/02 07:39:37;;;;;;;;;;;24.20;43.90;;;;;;495325;240;1047;-73
2021/09/02 07:41:35;;;;;;;;;;;24.50;43.90;;;;;;495120;240;1345;-73
2021/09/02 07:43:36;;;;;;;;;;;24.50;43.80;;;;;;495318;240;1039;-73
2021/09/02 07:45:38;;;;;;;;;;;24.50;44.00;;;;;;495327;240;1071;-73
2021/09/02 07:47:39;;;;;;;;;;;24.60;44.00;;;;;;495287;240;1153;-73
2021/09/02 07:49:40;;;;;;;;;;;24.60;44.10;;;;;;495337;240;1144;-73
2021/09/02 07:51:42;;;;;;;;;;;24.60;44.00;;;;;;495393;240;1389;-73
2021/09/02 07:53:43;;;;;;;;;;;24.70;43.90;;;;;;494569;240;2197;-73
2021/09/02 07:55:44;;;;;;;;;;;24.70;43.90;;;;;;495065;240;1095;-73
2021/09/02 07:57:47;;;;;;;;;;;24.60;44.10;;;;;;495188;240;1200;-73
2021/09/02 07:59:49;;;;;;;;;;;24.60;44.30;;;;;;495234;240;1163;-73
2021/09/02 08:01:50;;;;;;;;;;;24.10;45.20;;;;;;495218;240;1060;-73
2021/09/02 08:03:51;;;;;;;;;;;24.30;45.10;;;;;;495436;240;1072;-72
2021/09/02 08:05:53;;;;;;;;;;;24.40;44.90;;;;;;495262;240;1242;-72
2021/09/02 08:07:54;;;;;;;;;;;24.40;45.10;;;;;;495292;240;1219;-73
2021/09/02 08:09:56;;;;;;;;;;;24.30;45.40;;;;;;495267;240;1046;-73
2021/09/02 08:11:57;;;;;;;;;;;24.40;45.20;;;;;;495086;239;1136;-73
2021/09/02 08:13:58;;;;;;;;;;;24.50;45.10;;;;;;495244;240;2190;-73
2021/09/02 08:16:00;;;;;;;;;;;24.30;45.20;;;;;;495511;240;1098;-73
2021/09/02 08:18:01;;;;;;;;;;;24.50;45.00;;;;;;495252;240;1088;-73
2021/09/02 08:20:02;;;;;;;;;;;24.50;45.10;;;;;;495364;240;1160;-73
2021/09/02 08:22:03;;;;;;;;;;;24.40;45.50;;;;;;495302;240;1435;-73
2021/09/02 08:24:05;;;;;;;;;;;24.30;45.60;;;;;;495266;240;1118;-73
2021/09/02 08:26:06;;;;;;;;;;;24.30;45.50;;;;;;495234;240;1073;-73
2021/09/02 08:28:07;;;;;;;;;;;24.20;45.80;;;;;;495171;240;1196;-73
2021/09/02 08:30:09;;;;;;;;;;;24.30;45.90;;;;;;495205;240;1151;-73
2021/09/02 08:32:11;;;;;;;;;;;24.10;46.10;;;;;;495158;240;1115;-73
2021/09/02 08:34:11;;;;;;;;;;;24.00;46.20;;;;;;495192;240;2210;-73
2021/09/02 08:36:14;;;;;;;;;;;24.20;46.10;;;;;;495162;240;1096;-73
2021/09/02 08:38:14;;;;;;;;;;;24.20;46.10;;;;;;495117;240;1694;-73
2021/09/02 08:40:15;;;;;;;;;;;24.40;45.90;;;;;;495171;240;1113;-73
2021/09/02 08:42:17;;;;;;;;;;;24.30;46.20;;;;;;495195;240;1137;-73
2021/09/02 08:44:18;;;;;;;;;;;24.20;46.20;;;;;;495151;240;1101;-73
2021/09/02 08:46:19;;;;;;;;;;;24.10;46.40;;;;;;495136;240;1065;-73
2021/09/02 08:48:21;;;;;;;;;;;24.20;46.70;;;;;;495076;240;1186;-73
2021/09/02 08:50:23;;;;;;;;;;;24.30;46.50;;;;;;495169;240;1191;-73
2021/09/02 08:52:27;;;;;;;;;;;24.30;46.30;;;;;;495230;240;1224;-73
2021/09/02 08:54:25;;;;;;;;;;;24.00;46.60;;;;;;494958;240;2190;-73
2021/09/02 08:56:26;;;;;;;;;;;24.20;46.40;;;;;;495239;240;1126;-72
2021/09/02 08:58:29;;;;;;;;;;;24.40;46.30;;;;;;495239;240;1182;-73
2021/09/02 09:00:29;;;;;;;;;;;24.30;46.30;;;;;;495145;240;1346;-73
2021/09/02 09:02:30;;;;;;;;;;;24.20;46.50;;;;;;495350;240;1442;-73
2021/09/02 09:04:31;;;;;;;;;;;24.30;46.50;;;;;;495142;240;1102;-73
2021/09/02 09:06:33;;;;;;;;;;;24.40;46.50;;;;;;495237;240;1078;-73
2021/09/02 09:08:34;;;;;;;;;;;24.40;46.40;;;;;;495244;240;1188;-73
2021/09/02 09:10:35;;;;;;;;;;;24.40;46.50;;;;;;495385;240;1058;-73
2021/09/02 09:12:36;;;;;;;;;;;24.50;46.50;;;;;;495267;240;1190;-73
2021/09/02 09:14:38;;;;;;;;;;;24.50;46.40;;;;;;495145;240;2190;-72
2021/09/02 09:16:39;;;;;;;;;;;24.30;46.50;;;;;;495197;240;1130;-73
2021/09/02 09:18:40;;;;;;;;;;;24.40;46.80;;;;;;495230;240;1277;-73
2021/09/02 09:20:42;;;;;;;;;;;24.40;46.70;;;;;;495166;240;1125;-73
2021/09/02 09:22:43;;;;;;;;;;;24.50;46.80;;;;;;495156;240;1078;-72
2021/09/02 09:24:44;;;;;;;;;;;24.40;47.10;;;;;;495125;240;1153;-73
2021/09/02 09:26:46;;;;;;;;;;;24.50;46.70;;;;;;495372;240;1138;-73
2021/09/02 09:28:47;;;;;;;;;;;24.40;46.90;;;;;;495236;240;1110;-73
2021/09/02 09:30:48;;;;;;;;;;;24.40;47.00;;;;;;495133;240;1125;-73
2021/09/02 09:32:50;;;;;;;;;;;24.50;46.70;;;;;;495166;240;1353;-73
2021/09/02 09:34:51;;;;;;;;;;;24.40;46.80;;;;;;495156;240;2234;-73
2021/09/02 09:36:52;;;;;;;;;;;24.50;46.60;;;;;;495197;240;1379;-73
2021/09/02 09:38:54;;;;;;;;;;;24.40;47.00;;;;;;494169;240;1048;-73
2021/09/02 09:40:55;;;;;;;;;;;24.40;46.90;;;;;;495132;240;1065;-73
2021/09/02 09:42:56;;;;;;;;;;;24.60;46.70;;;;;;495050;240;1097;-73
2021/09/02 09:44:58;;;;;;;;;;;24.40;46.90;;;;;;495322;240;1113;-73
2021/09/02 09:46:59;;;;;;;;;;;24.50;46.90;;;;;;495392;240;1127;-73
2021/09/02 09:49:00;;;;;;;;;;;24.50;46.80;;;;;;495197;240;1077;-73
2021/09/02 09:51:02;;;;;;;;;;;24.30;47.30;;;;;;495218;240;1167;-73
2021/09/02 09:53:03;;;;;;;;;;;24.30;47.20;;;;;;495285;240;1117;-73
2021/09/02 09:55:04;;;;;;;;;;;24.50;47.00;;;;;;495127;240;2205;-73
2021/09/02 09:57:05;;;;;;;;;;;24.60;47.00;;;;;;495178;240;1161;-73
2021/09/02 09:59:07;;;;;;;;;;;24.20;47.50;;;;;;495011;240;1073;-73
2021/09/02 10:01:08;;;;;;;;;;;24.30;47.40;;;;;;495018;240;1538;-73
2021/09/02 10:03:09;;;;;;;;;;;24.50;47.20;;;;;;495171;240;1169;-73
2021/09/02 10:05:11;;;;;;;;;;;24.50;46.90;;;;;;495262;240;1183;-73
2021/09/02 10:07:16;;;;;;;;;;;24.60;46.70;;;;;;495227;240;1111;-73
2021/09/02 10:09:14;;;;;;;;;;;24.40;47.20;;;;;;495091;240;1264;-73
2021/09/02 10:11:16;;;;;;;;;;;24.30;47.30;;;;;;495356;240;1410;-72
2021/09/02 10:13:17;;;;;;;;;;;24.50;47.10;;;;;;495392;240;1059;-72
2021/09/02 10:15:18;;;;;;;;;;;24.50;47.00;;;;;;495253;240;2182;-72
2021/09/02 10:17:19;;;;;;;;;;;24.50;46.90;;;;;;495263;240;1152;-72
2021/09/02 10:19:22;;;;;;;;;;;24.50;46.90;;;;;;495302;240;1254;-72
2021/09/02 10:21:22;;;;;;;;;;;24.30;47.10;;;;;;495208;240;1463;-72
2021/09/02 10:23:24;;;;;;;;;;;24.50;47.00;;;;;;495180;240;1058;-72
2021/09/02 10:25:25;;;;;;;;;;;24.40;47.30;;;;;;495394;240;1127;-73
2021/09/02 10:27:27;;;;;;;;;;;24.50;46.80;;;;;;495088;240;1169;-73
2021/09/02 10:29:28;;;;;;;;;;;24.50;46.90;;;;;;495394;240;1045;-73
2021/09/02 10:31:30;;;;;;;;;;;24.30;47.00;;;;;;495207;236;1336;-73
2021/09/02 10:33:31;;;;;;;;;;;24.50;46.90;;;;;;495213;240;1086;-73
2021/09/02 10:35:33;;;;;;;;;;;24.20;46.90;;;;;;495212;240;2182;-73
2021/09/02 10:37:34;;;;;;;;;;;24.50;46.90;;;;;;495064;240;1296;-73
2021/09/02 10:39:37;;;;;;;;;;;24.40;47.00;;;;;;495180;240;1110;-73
2021/09/02 10:41:37;;;;;;;;;;;24.40;46.80;;;;;;495076;240;1833;-73
2021/09/02 10:43:38;;;;;;;;;;;24.60;46.50;;;;;;495529;240;1175;-73
2021/09/02 10:45:39;;;;;;;;;;;24.70;46.30;;;;;;495257;240;1069;-74
2021/09/02 10:47:40;;;;;;;;;;;24.60;46.40;;;;;;495276;240;1092;-73
2021/09/02 10:49:42;;;;;;;;;;;24.60;46.10;;;;;;495288;240;1052;-73
2021/09/02 10:51:43;;;;;;;;;;;24.60;46.20;;;;;;495245;240;1167;-73
2021/09/02 10:53:45;;;;;;;;;;;24.50;46.40;;;;;;495305;240;1046;-73
2021/09/02 10:55:46;;;;;;;;;;;24.50;46.50;;;;;;495029;240;2158;-73
2021/09/02 10:57:47;;;;;;;;;;;24.50;46.50;;;;;;495009;240;1145;-73
2021/09/02 10:59:49;;;;;;;;;;;24.50;46.50;;;;;;495238;240;1158;-73
2021/09/02 11:01:50;;;;;;;;;;;24.50;46.30;;;;;;495191;240;1134;-73
2021/09/02 11:03:52;;;;;;;;;;;24.60;46.20;;;;;;495297;240;1063;-73
2021/09/02 11:05:53;;;;;;;;;;;24.60;46.20;;;;;;495331;240;1527;-73
2021/09/02 11:07:54;;;;;;;;;;;24.40;46.40;;;;;;495387;240;1118;-73
2021/09/02 11:09:55;;;;;;;;;;;24.70;46.00;;;;;;495285;240;1079;-73
2021/09/02 11:11:57;;;;;;;;;;;24.70;45.90;;;;;;494792;240;1109;-73
2021/09/02 11:13:58;;;;;;;;;;;24.60;46.00;;;;;;494869;240;1054;-73
2021/09/02 11:16:00;;;;;;;;;;;24.90;45.50;;;;;;494935;240;2193;-73
2021/09/02 11:18:01;;;;;;;;;;;24.40;46.30;;;;;;495122;240;1215;-73
2021/09/02 11:20:02;;;;;;;;;;;24.50;46.10;;;;;;495217;240;1053;-73
2021/09/02 11:22:04;;;;;;;;;;;24.50;45.80;;;;;;495094;240;1300;-73
2021/09/02 11:24:06;;;;;;;;;;;24.50;45.70;;;;;;495227;240;1086;-72
2021/09/02 11:26:06;;;;;;;;;;;24.50;46.00;;;;;;494969;240;1212;-73
2021/09/02 11:28:08;;;;;;;;;;;24.40;46.20;;;;;;495143;240;1380;-73
2021/09/02 11:30:09;;;;;;;;;;;24.40;46.00;;;;;;495268;240;1170;-72
2021/09/02 11:32:11;;;;;;;;;;;24.60;46.00;;;;;;495211;240;1298;-72
2021/09/02 11:34:12;;;;;;;;;;;24.70;45.60;;;;;;495178;240;1093;-73
2021/09/02 11:36:13;;;;;;;;;;;24.60;45.50;;;;;;495043;240;2186;-73
2021/09/02 11:38:15;;;;;;;;;;;24.60;45.50;;;;;;495036;240;1039;-73
2021/09/02 11:40:16;;;;;;;;;;;24.60;45.70;;;;;;495179;240;1543;-73
2021/09/02 11:42:17;;;;;;;;;;;24.80;45.40;;;;;;495181;240;1116;-73
2021/09/02 11:44:19;;;;;;;;;;;24.70;45.50;;;;;;495237;240;1214;-73
2021/09/02 11:46:20;;;;;;;;;;;24.40;45.70;;;;;;495220;240;1073;-74
2021/09/02 11:48:21;;;;;;;;;;;24.70;45.60;;;;;;495240;240;1144;-73
2021/09/02 11:50:23;;;;;;;;;;;24.50;45.80;;;;;;495297;240;1452;-73
2021/09/02 11:52:24;;;;;;;;;;;24.50;45.80;;;;;;495209;240;1113;-73
2021/09/02 11:54:25;;;;;;;;;;;24.60;45.40;;;;;;495048;240;982;-73
2021/09/02 11:56:27;;;;;;;;;;;24.50;45.70;;;;;;494851;240;2184;-73